Time;durP1;ratioP1;P1;durP2;ratioP2;P2;SDS_P1;SDS_P2;PMS_P1;PMS_P2;Temp;Humidity;BMP_temperature;BMP_pressure;BME280_temperature;BME280_humidity;BME280_pressure;Samples;Min_cycle;Max_cycle;Signal;HPM_P1;HPM_P2
2021/07/19 00:00:32;;;;;;;5.83;4.30;;;;;;;;;;5071237;28;20417;-75
2021/07/19 00:02:59;;;;;;;10.03;4.70;;;;;;;;;;5093152;28;20467;-74
2021/07/19 00:05:26;;;;;;;9.53;4.80;;;;;;;;;;5093358;28;20440;-72
2021/07/19 00:07:53;;;;;;;11.37;4.67;;;;;;;;;;5087195;28;20421;-74
2021/07/19 00:10:19;;;;;;;12.73;5.40;;;;;;;;;;5073308;28;20419;-73
2021/07/19 00:12:46;;;;;;;10.80;5.67;;;;;;;;;;5073281;28;20436;-73
2021/07/19 00:15:14;;;;;;;7.03;4.60;;;;;;;;;;5073171;28;20462;-77
2021/07/19 00:17:40;;;;;;;10.60;6.30;;;;;;;;;;5059895;28;20991;-75
2021/07/19 00:20:07;;;;;;;7.00;4.57;;;;;;;;;;5072999;28;20436;-75
2021/07/19 00:22:33;;;;;;;7.80;4.30;;;;;;;;;;5067177;28;20800;-75
2021/07/19 00:24:59;;;;;;;12.87;5.20;;;;;;;;;;5087338;28;20417;-73
2021/07/19 00:27:25;;;;;;;8.23;4.80;;;;;;;;;;5092686;28;20448;-73
2021/07/19 00:29:51;;;;;;;9.23;4.73;;;;;;;;;;5093120;28;20475;-73
2021/07/19 00:32:17;;;;;;;6.87;4.60;;;;;;;;;;5091513;28;20491;-74
2021/07/19 00:34:43;;;;;;;6.80;4.70;;;;;;;;;;5092849;28;20951;-75
2021/07/19 00:37:09;;;;;;;6.73;5.03;;;;;;;;;;5092476;28;20420;-75
2021/07/19 00:39:35;;;;;;;9.03;4.00;;;;;;;;;;5092657;28;20417;-76
2021/07/19 00:42:01;;;;;;;9.17;5.17;;;;;;;;;;5093022;28;20452;-76
2021/07/19 00:44:27;;;;;;;7.23;4.63;;;;;;;;;;5092820;28;20428;-75
2021/07/19 00:46:54;;;;;;;11.53;5.20;;;;;;;;;;5092505;28;20427;-75
2021/07/19 00:49:21;;;;;;;13.97;4.83;;;;;;;;;;5092751;28;20483;-72
2021/07/19 00:51:47;;;;;;;11.27;5.50;;;;;;;;;;5092398;28;20444;-73
2021/07/19 00:54:15;;;;;;;10.20;4.90;;;;;;;;;;5091301;28;20502;-75
2021/07/19 00:56:42;;;;;;;11.53;5.07;;;;;;;;;;5071867;28;20541;-72
2021/07/19 00:59:09;;;;;;;8.90;4.13;;;;;;;;;;5087211;28;20569;-72
2021/07/19 01:01:37;;;;;;;6.30;4.33;;;;;;;;;;5092149;28;20940;-75
2021/07/19 01:04:04;;;;;;;8.80;4.30;;;;;;;;;;5092296;28;20504;-72
2021/07/19 01:06:30;;;;;;;8.00;4.70;;;;;;;;;;5092190;28;20468;-74
2021/07/19 01:08:57;;;;;;;6.30;4.07;;;;;;;;;;5076156;28;20421;-74
2021/07/19 01:11:23;;;;;;;12.53;6.10;;;;;;;;;;5071759;28;20466;-73
2021/07/19 01:13:50;;;;;;;9.70;4.67;;;;;;;;;;5071613;28;20426;-74
2021/07/19 01:16:16;;;;;;;7.40;4.90;;;;;;;;;;5071670;28;20504;-74
2021/07/19 01:18:42;;;;;;;5.93;4.73;;;;;;;;;;5071643;28;20421;-75
2021/07/19 01:21:17;;;;;;;8.80;5.00;;;;;;;;;;5071744;28;20467;-74
2021/07/19 01:24:02;;;;;;;10.37;4.60;;;;;;;;;;5075477;28;20971;-72
2021/07/19 01:26:31;;;;;;;7.50;4.47;;;;;;;;;;5092108;28;20983;-73
2021/07/19 01:28:59;;;;;;;10.83;5.27;;;;;;;;;;5082503;28;20776;-74
2021/07/19 01:31:25;;;;;;;6.40;4.63;;;;;;;;;;5088024;28;20448;-73
2021/07/19 01:33:54;;;;;;;8.37;4.80;;;;;;;;;;5095552;28;20916;-75
2021/07/19 01:36:23;;;;;;;7.43;4.50;;;;;;;;;;5093624;28;20472;-74
2021/07/19 01:38:49;;;;;;;5.70;3.70;;;;;;;;;;5095289;28;20480;-75
2021/07/19 01:41:17;;;;;;;6.80;3.90;;;;;;;;;;5094626;28;20465;-71
2021/07/19 01:43:44;;;;;;;10.20;4.20;;;;;;;;;;5075164;28;20448;-74
2021/07/19 01:46:10;;;;;;;7.53;4.30;;;;;;;;;;5075138;28;20425;-75
2021/07/19 01:48:36;;;;;;;8.83;3.60;;;;;;;;;;5074782;28;20462;-74
2021/07/19 01:51:03;;;;;;;7.57;4.10;;;;;;;;;;5076227;28;20444;-73
2021/07/19 01:53:29;;;;;;;8.37;4.20;;;;;;;;;;5095260;28;20449;-73
2021/07/19 01:55:56;;;;;;;8.07;4.23;;;;;;;;;;5095333;28;20798;-74
2021/07/19 01:58:22;;;;;;;12.40;5.40;;;;;;;;;;5075214;28;20418;-75
2021/07/19 02:00:48;;;;;;;8.50;4.30;;;;;;;;;;5074855;28;20467;-72
2021/07/19 02:03:15;;;;;;;7.40;4.77;;;;;;;;;;5074839;28;20497;-73
2021/07/19 02:05:43;;;;;;;5.77;4.20;;;;;;;;;;5074699;28;20493;-74
2021/07/19 02:08:09;;;;;;;8.77;4.40;;;;;;;;;;5074190;28;20541;-76
2021/07/19 02:10:36;;;;;;;7.33;4.77;;;;;;;;;;5074455;28;20425;-74
2021/07/19 02:13:05;;;;;;;6.80;4.00;;;;;;;;;;5074484;28;20960;-74
2021/07/19 02:15:32;;;;;;;10.43;4.30;;;;;;;;;;5074483;28;20545;-73
2021/07/19 02:17:59;;;;;;;10.33;4.30;;;;;;;;;;5074028;28;20899;-74
2021/07/19 02:20:25;;;;;;;12.07;4.77;;;;;;;;;;5074481;28;20424;-75
2021/07/19 02:22:52;;;;;;;7.50;4.47;;;;;;;;;;5072283;28;20643;-74
2021/07/19 02:25:19;;;;;;;9.83;4.63;;;;;;;;;;5091029;28;20420;-72
2021/07/19 02:27:46;;;;;;;6.37;3.97;;;;;;;;;;5093992;28;20427;-74
2021/07/19 02:30:14;;;;;;;9.87;4.07;;;;;;;;;;5074427;28;20417;-73
2021/07/19 02:32:41;;;;;;;5.63;3.67;;;;;;;;;;5075142;28;20767;-74
2021/07/19 02:35:07;;;;;;;8.43;4.60;;;;;;;;;;5094286;28;20487;-72
2021/07/19 02:37:42;;;;;;;9.80;4.07;;;;;;;;;;5093881;28;20428;-75
2021/07/19 02:40:09;;;;;;;7.77;3.93;;;;;;;;;;5093931;28;20507;-74
2021/07/19 02:42:42;;;;;;;8.07;4.10;;;;;;;;;;5081754;28;20779;-75
2021/07/19 02:45:15;;;;;;;10.03;4.73;;;;;;;;;;5073935;28;20446;-74
2021/07/19 02:47:44;;;;;;;9.03;4.30;;;;;;;;;;5073407;28;20422;-72
2021/07/19 02:50:12;;;;;;;4.77;3.50;;;;;;;;;;5073948;28;20413;-74
2021/07/19 02:52:38;;;;;;;7.33;4.37;;;;;;;;;;5088684;28;20448;-74
2021/07/19 02:55:05;;;;;;;4.53;3.60;;;;;;;;;;5093871;28;20509;-74
2021/07/19 02:57:31;;;;;;;7.37;4.03;;;;;;;;;;5079838;28;20921;-74
2021/07/19 02:59:58;;;;;;;5.53;3.80;;;;;;;;;;5073522;28;20914;-72
2021/07/19 03:02:25;;;;;;;7.40;4.07;;;;;;;;;;5073117;28;20438;-74
2021/07/19 03:04:54;;;;;;;5.10;3.80;;;;;;;;;;5073212;28;20455;-73
2021/07/19 03:07:22;;;;;;;7.27;3.77;;;;;;;;;;5072886;28;20541;-74
2021/07/19 03:09:50;;;;;;;4.70;3.80;;;;;;;;;;5073580;28;20420;-74
2021/07/19 03:12:19;;;;;;;12.30;4.70;;;;;;;;;;5090071;28;20764;-74
2021/07/19 03:14:48;;;;;;;5.73;3.80;;;;;;;;;;5093487;28;20410;-73
2021/07/19 03:17:15;;;;;;;8.23;4.00;;;;;;;;;;5093011;28;20728;-73
2021/07/19 03:19:43;;;;;;;7.73;4.20;;;;;;;;;;5093485;28;20466;-73
2021/07/19 03:22:11;;;;;;;5.80;3.60;;;;;;;;;;5084788;28;20435;-73
2021/07/19 03:24:37;;;;;;;6.83;3.90;;;;;;;;;;5083827;28;20444;-73
2021/07/19 03:27:03;;;;;;;8.87;4.30;;;;;;;;;;5088486;28;20422;-74
2021/07/19 03:29:30;;;;;;;7.83;4.43;;;;;;;;;;5073293;28;20453;-72
2021/07/19 03:31:57;;;;;;;6.97;4.43;;;;;;;;;;5073059;28;20468;-73
2021/07/19 03:34:23;;;;;;;7.00;4.97;;;;;;;;;;5072193;28;20422;-73
2021/07/19 03:36:53;;;;;;;8.53;4.50;;;;;;;;;;5072694;28;20470;-73
2021/07/19 03:39:20;;;;;;;8.63;4.60;;;;;;;;;;5072997;28;20445;-72
2021/07/19 03:41:46;;;;;;;9.30;4.83;;;;;;;;;;5073078;28;20784;-75
2021/07/19 03:44:13;;;;;;;7.70;4.30;;;;;;;;;;5073045;28;20409;-73
2021/07/19 03:46:41;;;;;;;5.63;4.27;;;;;;;;;;5072471;28;20478;-73
2021/07/19 03:49:07;;;;;;;6.73;4.57;;;;;;;;;;5073217;28;20470;-73
2021/07/19 03:51:34;;;;;;;6.07;4.57;;;;;;;;;;5073150;28;20434;-75
2021/07/19 03:54:00;;;;;;;9.10;5.53;;;;;;;;;;5072843;28;20417;-74
2021/07/19 03:56:29;;;;;;;9.23;5.20;;;;;;;;;;5072586;28;20459;-72
2021/07/19 03:58:58;;;;;;;8.87;5.27;;;;;;;;;;5085482;28;20413;-75
2021/07/19 04:01:25;;;;;;;7.30;5.10;;;;;;;;;;5092953;28;20585;-75
2021/07/19 04:03:54;;;;;;;7.57;5.37;;;;;;;;;;5093211;28;20413;-76
2021/07/19 04:06:22;;;;;;;7.17;4.80;;;;;;;;;;5093058;28;20790;-74
2021/07/19 04:08:48;;;;;;;10.77;5.93;;;;;;;;;;5092651;28;20431;-74
2021/07/19 04:11:16;;;;;;;10.30;5.40;;;;;;;;;;5093208;28;20821;-76
2021/07/19 04:13:42;;;;;;;7.70;5.03;;;;;;;;;;5093000;28;20465;-72
2021/07/19 04:16:09;;;;;;;8.30;5.13;;;;;;;;;;5093014;28;20453;-72
2021/07/19 04:18:36;;;;;;;10.93;5.57;;;;;;;;;;5092634;28;20409;-75
2021/07/19 04:21:03;;;;;;;7.47;5.00;;;;;;;;;;5093255;28;20425;-73
2021/07/19 04:23:31;;;;;;;9.97;6.10;;;;;;;;;;5073805;28;20414;-73
2021/07/19 04:25:57;;;;;;;6.70;5.33;;;;;;;;;;5093209;28;20416;-72
2021/07/19 04:28:23;;;;;;;8.93;5.40;;;;;;;;;;5088133;28;20410;-75
2021/07/19 04:30:50;;;;;;;7.33;6.47;;;;;;;;;;5071659;28;20929;-73
2021/07/19 04:33:20;;;;;;;10.40;5.13;;;;;;;;;;5072860;28;20441;-74
2021/07/19 04:35:46;;;;;;;6.93;4.90;;;;;;;;;;5072675;28;20810;-75
2021/07/19 04:38:14;;;;;;;6.77;5.17;;;;;;;;;;5072297;28;20422;-72
2021/07/19 04:40:40;;;;;;;8.30;5.67;;;;;;;;;;5072566;28;20452;-72
2021/07/19 04:43:06;;;;;;;7.90;5.40;;;;;;;;;;5072443;28;20421;-74
2021/07/19 04:45:32;;;;;;;6.60;5.23;;;;;;;;;;5073047;28;20407;-74
2021/07/19 04:47:58;;;;;;;7.73;5.27;;;;;;;;;;5075943;28;20451;-75
2021/07/19 04:50:24;;;;;;;6.53;4.60;;;;;;;;;;5075975;28;20810;-73
2021/07/19 04:52:50;;;;;;;7.53;5.07;;;;;;;;;;5075947;28;20491;-72
2021/07/19 04:55:19;;;;;;;9.20;5.90;;;;;;;;;;5075888;28;20465;-75
2021/07/19 04:57:45;;;;;;;8.63;5.87;;;;;;;;;;5078606;28;20409;-74
2021/07/19 05:00:13;;;;;;;8.60;5.83;;;;;;;;;;5096234;28;20898;-72
2021/07/19 05:02:40;;;;;;;8.90;5.50;;;;;;;;;;5096349;28;20764;-73
2021/07/19 05:05:07;;;;;;;7.53;5.67;;;;;;;;;;5096041;28;20432;-73
2021/07/19 05:07:34;;;;;;;8.60;5.50;;;;;;;;;;5095952;28;20441;-73
2021/07/19 05:10:01;;;;;;;7.77;5.30;;;;;;;;;;5095867;28;20409;-75
2021/07/19 05:12:27;;;;;;;7.33;5.20;;;;;;;;;;5095880;28;20437;-75
2021/07/19 05:14:54;;;;;;;7.33;5.47;;;;;;;;;;5095950;28;20413;-74
2021/07/19 05:17:21;;;;;;;7.20;5.30;;;;;;;;;;5095322;28;20451;-73
2021/07/19 05:19:47;;;;;;;7.50;5.20;;;;;;;;;;5095881;28;20500;-74
2021/07/19 05:22:14;;;;;;;8.33;5.33;;;;;;;;;;5086314;28;20467;-75
2021/07/19 05:24:41;;;;;;;6.40;5.80;;;;;;;;;;5086580;28;20563;-76
2021/07/19 05:27:07;;;;;;;7.90;5.20;;;;;;;;;;5095488;28;20436;-72
2021/07/19 05:29:37;;;;;;;9.23;5.97;;;;;;;;;;5081252;28;20903;-73
2021/07/19 05:32:03;;;;;;;5.60;4.90;;;;;;;;;;5073912;28;20435;-73
2021/07/19 05:34:29;;;;;;;6.40;5.23;;;;;;;;;;5075194;28;20453;-75
2021/07/19 05:36:55;;;;;;;5.67;4.60;;;;;;;;;;5074818;28;20462;-75
2021/07/19 05:39:21;;;;;;;7.63;5.77;;;;;;;;;;5075347;28;20414;-73
2021/07/19 05:41:47;;;;;;;7.00;4.83;;;;;;;;;;5073994;28;20431;-74
2021/07/19 05:44:13;;;;;;;5.87;5.07;;;;;;;;;;5075203;28;20478;-73
2021/07/19 05:46:40;;;;;;;6.37;4.70;;;;;;;;;;5075070;28;20421;-73
2021/07/19 05:49:06;;;;;;;8.60;5.67;;;;;;;;;;5074893;28;20418;-72
2021/07/19 05:51:32;;;;;;;6.10;5.00;;;;;;;;;;5080843;28;20520;-74
2021/07/19 05:53:58;;;;;;;6.60;5.20;;;;;;;;;;5095095;28;20425;-75
2021/07/19 05:56:24;;;;;;;7.00;5.80;;;;;;;;;;5092323;28;20466;-75
2021/07/19 05:58:50;;;;;;;7.30;4.80;;;;;;;;;;5073931;28;20461;-74
2021/07/19 06:01:16;;;;;;;9.80;6.00;;;;;;;;;;5074629;28;20458;-74
2021/07/19 06:03:42;;;;;;;10.33;5.13;;;;;;;;;;5074684;28;20452;-72
2021/07/19 06:06:08;;;;;;;7.50;5.70;;;;;;;;;;5074516;28;20434;-74
2021/07/19 06:08:34;;;;;;;8.60;5.97;;;;;;;;;;5074509;28;20820;-74
2021/07/19 06:11:00;;;;;;;6.13;5.53;;;;;;;;;;5074781;28;20477;-73
2021/07/19 06:13:26;;;;;;;10.03;5.03;;;;;;;;;;5074789;28;20468;-74
2021/07/19 06:15:52;;;;;;;12.40;6.13;;;;;;;;;;5074283;28;20516;-71
2021/07/19 06:18:18;;;;;;;9.60;6.97;;;;;;;;;;5074323;28;20402;-77
2021/07/19 06:20:44;;;;;;;7.47;5.90;;;;;;;;;;5074408;28;20407;-76
2021/07/19 06:23:10;;;;;;;10.60;6.00;;;;;;;;;;5074076;28;20875;-74
2021/07/19 06:25:41;;;;;;;7.00;6.30;;;;;;;;;;5074350;28;20453;-71
2021/07/19 06:28:07;;;;;;;9.57;6.00;;;;;;;;;;5073978;28;20426;-73
2021/07/19 06:30:33;;;;;;;8.47;6.13;;;;;;;;;;5074397;28;20418;-72
2021/07/19 06:32:59;;;;;;;7.47;6.13;;;;;;;;;;5074030;28;20439;-71
2021/07/19 06:35:25;;;;;;;7.70;6.27;;;;;;;;;;5088514;28;20953;-72
2021/07/19 06:37:51;;;;;;;5.90;5.40;;;;;;;;;;5093936;28;20795;-74
2021/07/19 06:40:18;;;;;;;7.73;6.80;;;;;;;;;;5078138;28;20415;-73
2021/07/19 06:42:44;;;;;;;9.50;6.37;;;;;;;;;;5070213;28;20427;-74
2021/07/19 06:45:11;;;;;;;8.73;6.23;;;;;;;;;;5063160;28;20951;-72
2021/07/19 06:47:38;;;;;;;6.67;5.30;;;;;;;;;;5069848;28;20414;-73
2021/07/19 06:50:09;;;;;;;8.07;5.93;;;;;;;;;;5084525;28;20441;-73
2021/07/19 06:52:35;;;;;;;11.57;6.23;;;;;;;;;;5090118;28;20444;-76
2021/07/19 06:55:01;;;;;;;10.97;6.10;;;;;;;;;;5075313;28;20457;-74
2021/07/19 06:57:27;;;;;;;6.50;5.50;;;;;;;;;;5082023;28;20429;-73
2021/07/19 06:59:55;;;;;;;7.40;5.60;;;;;;;;;;5065994;28;20422;-71
2021/07/19 07:02:21;;;;;;;5.97;5.37;;;;;;;;;;5089974;28;20437;-73
2021/07/19 07:04:47;;;;;;;6.60;6.00;;;;;;;;;;5073376;28;20425;-73
2021/07/19 07:07:13;;;;;;;7.67;6.00;;;;;;;;;;5069246;28;20466;-73
2021/07/19 07:09:39;;;;;;;8.57;5.60;;;;;;;;;;5069617;28;20963;-73
2021/07/19 07:12:05;;;;;;;7.40;5.60;;;;;;;;;;5069485;28;20470;-73
2021/07/19 07:14:31;;;;;;;20.83;16.47;;;;;;;;;;5069483;28;20449;-73
2021/07/19 07:16:57;;;;;;;24.13;19.80;;;;;;;;;;5069295;28;20555;-73
2021/07/19 07:19:24;;;;;;;11.23;7.33;;;;;;;;;;5085071;28;20431;-73
2021/07/19 07:21:50;;;;;;;13.20;8.80;;;;;;;;;;5089744;28;20516;-76
2021/07/19 07:24:16;;;;;;;10.07;8.33;;;;;;;;;;5070370;28;20415;-72
2021/07/19 07:26:42;;;;;;;5.67;5.07;;;;;;;;;;5069208;28;20445;-71
2021/07/19 07:29:08;;;;;;;7.60;5.63;;;;;;;;;;5069314;28;20779;-74
2021/07/19 07:31:34;;;;;;;14.03;5.80;;;;;;;;;;5069141;28;20517;-74
2021/07/19 07:34:01;;;;;;;5.83;5.23;;;;;;;;;;5069124;28;21219;-76
2021/07/19 07:36:29;;;;;;;9.00;5.30;;;;;;;;;;5069272;28;20473;-72
2021/07/19 07:38:55;;;;;;;5.60;4.63;;;;;;;;;;5068975;28;20411;-74
2021/07/19 07:41:22;;;;;;;5.73;5.23;;;;;;;;;;5072867;28;20437;-72
2021/07/19 07:43:48;;;;;;;10.17;5.30;;;;;;;;;;5089389;28;20454;-74
2021/07/19 07:46:15;;;;;;;8.60;5.40;;;;;;;;;;5089058;28;20445;-71
2021/07/19 07:48:41;;;;;;;7.43;5.27;;;;;;;;;;5080347;28;20452;-72
2021/07/19 07:51:08;;;;;;;7.23;5.00;;;;;;;;;;5089319;28;20444;-72
2021/07/19 07:53:35;;;;;;;5.30;4.80;;;;;;;;;;5089368;28;20809;-73
2021/07/19 07:56:01;;;;;;;6.03;5.00;;;;;;;;;;5089139;28;20576;-74
2021/07/19 07:58:27;;;;;;;7.00;4.43;;;;;;;;;;5068931;28;20422;-75
2021/07/19 08:00:53;;;;;;;5.13;4.33;;;;;;;;;;5069103;28;20437;-72
2021/07/19 08:03:20;;;;;;;9.03;5.40;;;;;;;;;;5069228;28;20412;-72
2021/07/19 08:05:46;;;;;;;5.63;4.53;;;;;;;;;;5068765;28;20599;-72
2021/07/19 08:08:12;;;;;;;5.90;4.43;;;;;;;;;;5068683;28;20530;-71
2021/07/19 08:10:38;;;;;;;5.07;4.57;;;;;;;;;;5069056;28;21029;-73
2021/07/19 08:13:04;;;;;;;5.03;4.40;;;;;;;;;;5068327;28;20442;-73
2021/07/19 08:15:32;;;;;;;7.53;4.67;;;;;;;;;;5068357;28;20519;-74
2021/07/19 08:17:58;;;;;;;6.80;4.70;;;;;;;;;;5068403;28;20422;-72
2021/07/19 08:20:24;;;;;;;4.63;4.13;;;;;;;;;;5068782;28;20417;-74
2021/07/19 08:22:50;;;;;;;6.90;4.50;;;;;;;;;;5068188;28;20850;-74
2021/07/19 08:25:17;;;;;;;5.83;4.00;;;;;;;;;;5072552;28;20446;-76
2021/07/19 08:27:44;;;;;;;5.30;4.07;;;;;;;;;;5072159;28;20500;-71
2021/07/19 08:30:11;;;;;;;5.07;4.17;;;;;;;;;;5072264;28;20778;-72
2021/07/19 08:32:37;;;;;;;5.00;3.80;;;;;;;;;;5072395;28;20791;-73
2021/07/19 08:35:09;;;;;;;11.03;4.70;;;;;;;;;;5072366;28;20414;-76
2021/07/19 08:37:35;;;;;;;4.93;3.50;;;;;;;;;;5072082;28;20444;-74
2021/07/19 08:40:01;;;;;;;9.80;4.30;;;;;;;;;;5072091;28;20450;-72
2021/07/19 08:42:27;;;;;;;4.50;3.87;;;;;;;;;;5072088;28;20493;-74
2021/07/19 08:44:53;;;;;;;6.37;3.57;;;;;;;;;;5072326;28;20843;-74
2021/07/19 08:47:20;;;;;;;3.80;3.40;;;;;;;;;;5071851;28;20426;-73
2021/07/19 08:49:46;;;;;;;5.90;3.73;;;;;;;;;;5072322;28;20448;-73
2021/07/19 08:52:15;;;;;;;6.50;3.30;;;;;;;;;;5072066;28;20844;-75
2021/07/19 08:54:47;;;;;;;9.20;6.63;;;;;;;;;;5072449;28;20410;-74
2021/07/19 08:57:14;;;;;;;6.30;3.70;;;;;;;;;;5075236;28;20504;-71
2021/07/19 08:59:40;;;;;;;4.33;3.40;;;;;;;;;;5072277;28;20446;-75
2021/07/19 09:02:06;;;;;;;3.43;3.00;;;;;;;;;;5079040;28;20473;-72
2021/07/19 09:04:32;;;;;;;3.60;3.30;;;;;;;;;;5092330;28;20428;-73
2021/07/19 09:06:59;;;;;;;4.70;3.20;;;;;;;;;;5091919;28;21054;-72
2021/07/19 09:09:28;;;;;;;4.73;3.20;;;;;;;;;;5092194;28;20449;-74
2021/07/19 09:11:55;;;;;;;3.77;2.93;;;;;;;;;;5091861;28;20787;-71
2021/07/19 09:14:21;;;;;;;3.73;3.00;;;;;;;;;;5078755;28;20414;-73
2021/07/19 09:16:49;;;;;;;6.17;3.07;;;;;;;;;;5071436;28;20465;-74
2021/07/19 09:19:20;;;;;;;6.57;3.00;;;;;;;;;;5071709;28;20419;-75
2021/07/19 09:21:56;;;;;;;4.77;2.80;;;;;;;;;;5070878;28;20449;-71
2021/07/19 09:24:23;;;;;;;3.87;2.47;;;;;;;;;;5068371;28;20452;-75
2021/07/19 09:26:51;;;;;;;5.97;2.77;;;;;;;;;;5071168;28;20426;-71
2021/07/19 09:29:19;;;;;;;3.03;2.73;;;;;;;;;;5071135;28;20908;-71
2021/07/19 09:31:49;;;;;;;2.90;2.60;;;;;;;;;;5070501;28;20517;-72
2021/07/19 09:34:23;;;;;;;4.80;3.13;;;;;;;;;;5070410;28;20514;-71
2021/07/19 09:37:08;;;;;;;4.77;3.17;;;;;;;;;;5070976;28;20528;-73
2021/07/19 09:39:42;;;;;;;4.43;3.13;;;;;;;;;;5064868;28;20418;-74
2021/07/19 09:42:18;;;;;;;3.77;2.80;;;;;;;;;;5071064;28;20434;-71
2021/07/19 09:44:52;;;;;;;5.10;3.27;;;;;;;;;;5071187;28;20414;-75
2021/07/19 09:47:18;;;;;;;5.47;3.23;;;;;;;;;;5070343;28;20482;-74
2021/07/19 09:49:44;;;;;;;5.70;3.03;;;;;;;;;;5069685;28;20425;-74
2021/07/19 09:52:12;;;;;;;4.17;3.20;;;;;;;;;;5070913;28;20537;-75
2021/07/19 09:54:39;;;;;;;3.83;2.60;;;;;;;;;;5071036;28;20522;-76
2021/07/19 09:57:05;;;;;;;3.40;2.97;;;;;;;;;;5070331;28;20469;-73
2021/07/19 09:59:33;;;;;;;5.23;2.40;;;;;;;;;;5070994;28;21114;-75
2021/07/19 10:02:00;;;;;;;4.20;2.93;;;;;;;;;;5070794;28;20946;-75
2021/07/19 10:04:26;;;;;;;6.03;2.60;;;;;;;;;;5070855;28;20904;-72
2021/07/19 10:06:54;;;;;;;3.27;2.50;;;;;;;;;;5070441;28;20468;-74
2021/07/19 10:09:21;;;;;;;4.87;3.07;;;;;;;;;;5070747;28;20444;-75
2021/07/19 10:11:48;;;;;;;3.63;2.93;;;;;;;;;;5070718;28;20461;-75
2021/07/19 10:14:23;;;;;;;6.53;2.90;;;;;;;;;;5069046;28;20476;-75
2021/07/19 10:16:50;;;;;;;3.87;3.07;;;;;;;;;;5063883;28;20826;-75
2021/07/19 10:19:16;;;;;;;4.87;3.53;;;;;;;;;;5070451;28;20480;-73
2021/07/19 10:21:42;;;;;;;3.80;3.13;;;;;;;;;;5068457;28;21034;-73
2021/07/19 10:24:10;;;;;;;5.83;3.20;;;;;;;;;;5070771;28;20514;-75
2021/07/19 10:26:36;;;;;;;5.43;3.20;;;;;;;;;;5070033;28;20422;-74
2021/07/19 10:29:03;;;;;;;5.97;3.30;;;;;;;;;;5070047;28;20511;-75
2021/07/19 10:31:30;;;;;;;4.00;2.70;;;;;;;;;;5070364;28;20564;-74
2021/07/19 10:33:57;;;;;;;4.33;2.87;;;;;;;;;;5069942;28;20736;-74
2021/07/19 10:36:31;;;;;;;4.60;2.90;;;;;;;;;;5070057;28;20462;-73
2021/07/19 10:39:00;;;;;;;4.73;2.97;;;;;;;;;;5069753;28;20504;-76
2021/07/19 10:41:26;;;;;;;4.03;2.80;;;;;;;;;;5069901;28;20885;-76
2021/07/19 10:44:18;;;;;;;5.93;2.80;;;;;;;;;;5069754;28;20898;-73
2021/07/19 10:46:44;;;;;;;6.73;3.13;;;;;;;;;;5068496;28;20437;-74
2021/07/19 10:49:12;;;;;;;3.50;2.87;;;;;;;;;;5069881;28;20411;-75
2021/07/19 10:51:48;;;;;;;5.87;3.33;;;;;;;;;;5069715;28;20438;-73
2021/07/19 10:54:15;;;;;;;6.33;3.37;;;;;;;;;;5069830;28;20912;-73
2021/07/19 10:56:41;;;;;;;5.43;3.00;;;;;;;;;;5069138;28;20465;-75
2021/07/19 10:59:07;;;;;;;4.27;3.20;;;;;;;;;;5069815;28;20410;-76
2021/07/19 11:01:34;;;;;;;5.37;3.13;;;;;;;;;;5069773;28;20438;-75
2021/07/19 11:04:01;;;;;;;4.60;3.10;;;;;;;;;;5069728;28;20525;-74
2021/07/19 11:06:34;;;;;;;4.13;2.80;;;;;;;;;;5069309;28;20438;-74
2021/07/19 11:09:01;;;;;;;4.13;2.77;;;;;;;;;;5067780;28;20435;-76
2021/07/19 11:11:31;;;;;;;3.10;2.80;;;;;;;;;;5069384;28;20460;-70
2021/07/19 11:14:04;;;;;;;4.50;2.73;;;;;;;;;;5069411;28;20431;-69
2021/07/19 11:16:40;;;;;;;3.60;2.90;;;;;;;;;;5069312;28;20540;-72
2021/07/19 11:19:06;;;;;;;4.17;3.40;;;;;;;;;;5069068;28;20446;-72
2021/07/19 11:21:33;;;;;;;3.67;3.13;;;;;;;;;;5059233;28;20732;-72
2021/07/19 11:24:20;;;;;;;3.50;3.17;;;;;;;;;;5069660;28;20465;-72
2021/07/19 11:26:54;;;;;;;4.67;3.03;;;;;;;;;;5068791;28;21087;-75
2021/07/19 11:29:34;;;;;;;6.30;3.93;;;;;;;;;;5068827;28;20410;-70
2021/07/19 11:32:26;;;;;;;5.37;3.30;;;;;;;;;;5068973;28;20441;-72
2021/07/19 11:34:52;;;;;;;4.10;3.37;;;;;;;;;;5074515;28;20440;-75
2021/07/19 11:37:18;;;;;;;6.53;4.33;;;;;;;;;;5068573;28;20476;-74
2021/07/19 11:39:51;;;;;;;4.53;4.00;;;;;;;;;;5069035;28;20498;-73
2021/07/19 11:42:40;;;;;;;3.90;3.50;;;;;;;;;;5069075;28;20438;-73
2021/07/19 11:45:11;;;;;;;3.67;3.37;;;;;;;;;;5068967;28;20814;-72
2021/07/19 11:47:41;;;;;;;5.27;4.03;;;;;;;;;;5068835;28;20426;-72
2021/07/19 11:50:07;;;;;;;6.87;3.60;;;;;;;;;;5068959;28;20410;-73
2021/07/19 11:52:34;;;;;;;4.03;3.30;;;;;;;;;;5069179;28;20767;-73
2021/07/19 11:55:00;;;;;;;8.33;3.70;;;;;;;;;;5068413;28;20426;-73
2021/07/19 11:57:26;;;;;;;4.03;3.60;;;;;;;;;;5072193;28;21261;-71
2021/07/19 11:59:52;;;;;;;5.83;3.87;;;;;;;;;;5073024;28;20914;-72
2021/07/19 12:02:28;;;;;;;8.53;2.80;;;;;;;;;;5073141;28;20976;-72
2021/07/19 12:04:54;;;;;;;3.97;3.33;;;;;;;;;;5070295;28;20421;-74
2021/07/19 12:07:24;;;;;;;2.80;2.50;;;;;;;;;;5072689;28;20425;-72
2021/07/19 12:09:58;;;;;;;4.50;2.97;;;;;;;;;;5073043;28;20407;-74
2021/07/19 12:12:24;;;;;;;4.17;3.33;;;;;;;;;;5072852;28;20484;-74
2021/07/19 12:15:00;;;;;;;4.00;2.70;;;;;;;;;;5072847;28;20817;-73
2021/07/19 12:17:33;;;;;;;3.73;3.07;;;;;;;;;;5072449;28;20492;-72
2021/07/19 12:19:59;;;;;;;3.40;2.93;;;;;;;;;;5072383;28;20426;-72
2021/07/19 12:22:25;;;;;;;4.60;2.90;;;;;;;;;;5070537;28;20441;-70
2021/07/19 12:24:57;;;;;;;3.30;3.00;;;;;;;;;;5074395;28;20439;-73
2021/07/19 12:27:23;;;;;;;3.13;2.83;;;;;;;;;;5072219;28;20429;-68
2021/07/19 12:29:50;;;;;;;3.40;2.97;;;;;;;;;;5072238;28;20421;-72
2021/07/19 12:32:16;;;;;;;3.97;3.13;;;;;;;;;;5072488;28;20591;-72
2021/07/19 12:34:43;;;;;;;3.70;3.10;;;;;;;;;;5075656;28;20496;-72
2021/07/19 12:37:10;;;;;;;4.53;3.30;;;;;;;;;;5071745;28;20461;-72
2021/07/19 12:40:04;;;;;;;3.10;2.80;;;;;;;;;;5072501;28;20487;-72
2021/07/19 12:42:32;;;;;;;6.30;3.07;;;;;;;;;;5071242;28;20454;-72
2021/07/19 12:44:59;;;;;;;3.30;2.77;;;;;;;;;;5072392;28;21213;-72
2021/07/19 12:47:26;;;;;;;6.13;2.90;;;;;;;;;;5071950;28;20449;-72
2021/07/19 12:49:52;;;;;;;6.00;3.73;;;;;;;;;;5072119;28;20453;-75
2021/07/19 12:52:19;;;;;;;3.10;2.70;;;;;;;;;;5072162;28;20841;-73
2021/07/19 12:55:01;;;;;;;2.80;2.50;;;;;;;;;;5071881;28;20422;-73
2021/07/19 12:57:28;;;;;;;3.43;3.13;;;;;;;;;;5071752;28;20473;-74
2021/07/19 12:59:54;;;;;;;3.90;3.07;;;;;;;;;;5071915;28;20414;-71
2021/07/19 13:02:21;;;;;;;4.60;3.20;;;;;;;;;;5072123;28;20847;-73
2021/07/19 13:04:50;;;;;;;3.80;3.30;;;;;;;;;;5071698;28;20414;-72
2021/07/19 13:07:32;;;;;;;5.77;3.77;;;;;;;;;;5071087;28;20480;-69
2021/07/19 13:09:59;;;;;;;5.70;3.00;;;;;;;;;;5071822;28;20518;-73
2021/07/19 13:12:25;;;;;;;3.90;3.10;;;;;;;;;;5071163;28;20965;-74
2021/07/19 13:14:51;;;;;;;3.50;3.20;;;;;;;;;;5062679;28;20515;-74
2021/07/19 13:17:21;;;;;;;3.80;3.23;;;;;;;;;;5068603;28;20490;-73
2021/07/19 13:19:52;;;;;;;3.87;3.47;;;;;;;;;;5064529;28;20536;-73
2021/07/19 13:22:18;;;;;;;5.57;3.67;;;;;;;;;;5068018;28;20438;-72
2021/07/19 13:24:46;;;;;;;3.87;2.83;;;;;;;;;;5064420;28;20461;-72
2021/07/19 13:27:13;;;;;;;5.60;3.53;;;;;;;;;;5069349;28;20426;-70
2021/07/19 13:29:43;;;;;;;3.67;3.30;;;;;;;;;;5067353;28;20418;-73
2021/07/19 13:32:14;;;;;;;3.93;3.53;;;;;;;;;;5071101;28;20435;-69
2021/07/19 13:34:40;;;;;;;3.90;3.10;;;;;;;;;;5076419;28;20429;-71
2021/07/19 13:37:06;;;;;;;4.67;3.70;;;;;;;;;;5070750;28;20470;-71
2021/07/19 13:39:33;;;;;;;7.77;3.97;;;;;;;;;;5071284;28;20510;-73
2021/07/19 13:42:02;;;;;;;6.47;4.10;;;;;;;;;;5071313;28;20453;-69
2021/07/19 13:44:28;;;;;;;5.90;3.90;;;;;;;;;;5071220;28;20417;-69
2021/07/19 13:46:54;;;;;;;4.70;4.00;;;;;;;;;;5070745;28;20410;-68
2021/07/19 13:49:20;;;;;;;4.50;3.73;;;;;;;;;;5071137;28;20425;-70
2021/07/19 13:51:46;;;;;;;4.97;3.63;;;;;;;;;;5070895;28;20830;-70
2021/07/19 13:54:12;;;;;;;6.40;3.40;;;;;;;;;;5069614;28;20432;-74
2021/07/19 13:56:38;;;;;;;5.73;3.90;;;;;;;;;;5070503;28;20822;-70
2021/07/19 13:59:04;;;;;;;4.57;3.53;;;;;;;;;;5070854;28;20417;-72
2021/07/19 14:01:35;;;;;;;4.70;3.90;;;;;;;;;;5070664;28;20437;-72
2021/07/19 14:04:01;;;;;;;4.93;3.70;;;;;;;;;;5073509;28;20487;-71
2021/07/19 14:06:27;;;;;;;4.60;3.80;;;;;;;;;;5091037;28;20889;-73
2021/07/19 14:08:53;;;;;;;4.67;4.27;;;;;;;;;;5090774;28;20530;-72
2021/07/19 14:11:19;;;;;;;9.33;4.90;;;;;;;;;;5091003;28;20489;-71
2021/07/19 14:13:45;;;;;;;3.80;3.50;;;;;;;;;;5090858;28;20430;-73
2021/07/19 14:16:11;;;;;;;7.83;3.70;;;;;;;;;;5089462;28;20463;-70
2021/07/19 14:18:37;;;;;;;4.77;3.83;;;;;;;;;;5079278;28;20419;-72
2021/07/19 14:21:04;;;;;;;6.57;3.87;;;;;;;;;;5070553;28;20444;-76
2021/07/19 14:23:30;;;;;;;5.87;3.40;;;;;;;;;;5068541;28;20461;-71
2021/07/19 14:25:56;;;;;;;3.50;3.17;;;;;;;;;;5070388;28;20454;-72
2021/07/19 14:28:22;;;;;;;6.33;3.70;;;;;;;;;;5081650;28;20414;-68
2021/07/19 14:30:48;;;;;;;3.60;2.97;;;;;;;;;;5070441;28;20419;-72
2021/07/19 14:33:14;;;;;;;5.33;4.10;;;;;;;;;;5070484;28;20454;-69
2021/07/19 14:35:40;;;;;;;5.73;3.90;;;;;;;;;;5075124;28;20860;-67
2021/07/19 14:38:06;;;;;;;4.43;3.43;;;;;;;;;;5069998;28;20813;-73
2021/07/19 14:40:32;;;;;;;5.80;4.00;;;;;;;;;;5070375;28;20468;-71
2021/07/19 14:42:58;;;;;;;6.13;3.60;;;;;;;;;;5069965;28;20811;-71